createdAt,value
2023-05-13T00:00:09.443Z,99853.53
2023-05-13T00:02:56.709Z,99849.53
2023-05-13T00:05:23.651Z,99850.56
2023-05-13T00:07:51.094Z,99847.03
2023-05-13T00:10:18.109Z,99844.75
2023-05-13T00:12:45.295Z,99850.78
2023-05-13T00:15:12.202Z,99847.28
2023-05-13T00:17:39.467Z,99849.03
2023-05-13T00:20:06.918Z,99845.25
2023-05-13T00:22:34.071Z,99842.47
2023-05-13T00:25:04.201Z,99842.75
2023-05-13T00:27:33.304Z,99850.06
2023-05-13T00:30:00.238Z,99853.34
2023-05-13T00:32:27.723Z,99852.06
2023-05-13T00:34:56.502Z,99851.81
2023-05-13T00:37:27.188Z,99850.56
2023-05-13T00:39:54.076Z,99849.03
2023-05-13T00:42:23.661Z,99846.03
2023-05-13T00:44:53.217Z,99848.81
2023-05-13T00:47:21.693Z,99846.56
2023-05-13T00:49:48.697Z,99851.56
2023-05-13T00:52:16.115Z,99848.81
2023-05-13T00:54:42.956Z,99854.59
2023-05-13T00:57:10.067Z,99846.78
2023-05-13T00:59:37.031Z,99845.75
2023-05-13T01:02:15.214Z,99850.56
2023-05-13T01:04:54.648Z,99855.34
2023-05-13T01:07:35.785Z,99857.09
2023-05-13T01:10:02.712Z,99851.53
2023-05-13T01:12:34.936Z,99853.78
2023-05-13T01:15:09.527Z,99851.03
2023-05-13T01:17:42.751Z,99859.84
2023-05-13T01:20:10.061Z,99856.78
2023-05-13T01:22:38.528Z,99862.84
2023-05-13T01:25:06.193Z,99855.59
2023-05-13T01:27:33.964Z,99858.88
2023-05-13T01:30:02.374Z,99858.06
2023-05-13T01:32:33.457Z,99868.16
2023-05-13T01:35:01.080Z,99864.13
2023-05-13T01:37:29.971Z,99863.13
2023-05-13T01:39:57.129Z,99860.09
2023-05-13T01:42:24.622Z,99857.06
2023-05-13T01:44:51.909Z,99861.34
2023-05-13T01:47:21.505Z,99857.31
2023-05-13T01:49:48.523Z,99858.81
2023-05-13T01:52:15.737Z,99858.06
2023-05-13T01:54:42.746Z,99856.31
2023-05-13T01:57:13.500Z,99861.13
2023-05-13T01:59:41.356Z,99858.88
2023-05-13T02:02:08.629Z,99860.59
2023-05-13T02:04:35.527Z,99856.31
2023-05-13T02:07:03.299Z,99858.09
2023-05-13T02:09:31.927Z,99854.06
2023-05-13T02:12:01.805Z,99856.31
2023-05-13T02:14:29.266Z,99861.13
2023-05-13T02:16:56.607Z,99861.84
2023-05-13T02:19:24.776Z,99857.59
2023-05-13T02:21:51.866Z,99859.31
2023-05-13T02:24:18.683Z,99858.53
2023-05-13T02:26:45.802Z,99859.81
2023-05-13T02:29:15.214Z,99862.56
2023-05-13T02:31:43.516Z,99856.28
2023-05-13T02:34:10.446Z,99860.84
2023-05-13T02:36:37.896Z,99866.34
2023-05-13T02:39:06.296Z,99865.34
2023-05-13T02:41:33.450Z,99860.03
2023-05-13T02:44:00.321Z,99863.06
2023-05-13T02:46:30.231Z,99862.81
2023-05-13T02:48:57.362Z,99866.34
2023-05-13T02:51:24.518Z,99865.34
2023-05-13T02:53:52.021Z,99870.13
2023-05-13T02:56:19.558Z,99863.34
2023-05-13T02:58:46.528Z,99863.84
2023-05-13T03:01:13.788Z,99866.63
2023-05-13T03:03:40.911Z,99866.63
2023-05-13T03:06:08.090Z,99861.81
2023-05-13T03:08:37.146Z,99868.59
2023-05-13T03:11:04.960Z,99869.31
2023-05-13T03:13:32.724Z,99871.81
2023-05-13T03:15:59.942Z,99874.38
2023-05-13T03:18:28.802Z,99872.84
2023-05-13T03:20:56.096Z,99871.34
2023-05-13T03:23:23.189Z,99870.84
2023-05-13T03:25:55.168Z,99869.81
2023-05-13T03:28:22.150Z,99869.03
2023-05-13T03:30:49.374Z,99885.38
2023-05-13T03:33:19.242Z,99879.56
2023-05-13T03:35:49.904Z,99886.66
2023-05-13T03:38:22.282Z,99887.66
2023-05-13T03:40:50.848Z,99890.38
2023-05-13T03:43:17.877Z,99887.06
2023-05-13T03:45:50.609Z,99888.13
2023-05-13T03:48:21.323Z,99894.13
2023-05-13T03:50:48.537Z,99898.38
2023-05-13T03:53:17.214Z,99909.22
2023-05-13T03:55:46.063Z,99909.72
2023-05-13T03:58:14.314Z,99904.69
2023-05-13T04:00:42.580Z,99908.22
2023-05-13T04:03:09.904Z,99909.72
2023-05-13T04:05:37.074Z,99909.19
2023-05-13T04:08:04.028Z,99914.00
2023-05-13T04:10:31.218Z,99914.97
2023-05-13T04:12:58.544Z,99908.91
2023-05-13T04:15:25.723Z,99915.25
2023-05-13T04:17:52.703Z,99921.53
2023-05-13T04:20:20.316Z,99924.53
2023-05-13T04:22:48.029Z,99911.16
2023-05-13T04:25:15.385Z,99914.91
2023-05-13T04:27:42.466Z,99923.47
2023-05-13T04:30:18.512Z,99923.47
2023-05-13T04:32:49.335Z,99919.66
2023-05-13T04:35:16.550Z,99922.38
2023-05-13T04:37:45.996Z,99918.06
2023-05-13T04:40:15.833Z,99925.63
2023-05-13T04:42:43.171Z,99921.59
2023-05-13T04:45:11.331Z,99933.44
2023-05-13T04:47:38.473Z,99929.91
2023-05-13T04:50:06.736Z,99933.88
2023-05-13T04:52:34.522Z,99934.63
2023-05-13T04:55:01.880Z,99929.09
2023-05-13T04:57:29.322Z,99932.09
2023-05-13T04:59:57.038Z,99939.16
2023-05-13T05:02:23.882Z,99941.91
2023-05-13T05:04:51.277Z,99945.16
2023-05-13T05:07:18.253Z,99941.34
2023-05-13T05:09:45.543Z,99946.09
2023-05-13T05:12:12.392Z,99948.28
2023-05-13T05:14:41.521Z,99941.50
2023-05-13T05:17:08.915Z,99945.25
2023-05-13T05:19:36.179Z,99949.06
2023-05-13T05:22:03.472Z,99959.81
2023-05-13T05:24:30.745Z,99952.69
2023-05-13T05:26:57.648Z,99953.47
2023-05-13T05:29:24.909Z,99956.41
2023-05-13T05:31:52.019Z,99953.59
2023-05-13T05:34:19.762Z,99958.31
2023-05-13T05:36:47.211Z,99962.31
2023-05-13T05:39:16.141Z,99958.03
2023-05-13T05:41:43.553Z,99961.53
2023-05-13T05:44:13.453Z,99955.03
2023-05-13T05:46:40.963Z,99964.56
2023-05-13T05:49:10.646Z,99956.94
2023-05-13T05:51:37.540Z,99953.63
2023-05-13T05:54:05.928Z,99967.75
2023-05-13T05:56:32.998Z,99961.72
2023-05-13T05:59:02.786Z,99960.97
2023-05-13T06:01:33.935Z,99968.09
2023-05-13T06:04:01.574Z,99964.84
2023-05-13T06:06:30.137Z,99970.63
2023-05-13T06:08:57.357Z,99976.16
2023-05-13T06:11:24.404Z,99971.25
2023-05-13T06:13:51.659Z,99966.00
2023-05-13T06:16:18.681Z,99974.47
2023-05-13T06:18:46.103Z,99973.28
2023-05-13T06:21:13.022Z,99971.47
2023-05-13T06:23:42.962Z,99970.97
2023-05-13T06:26:09.818Z,99972.81
2023-05-13T06:28:37.043Z,99976.63
2023-05-13T06:31:03.921Z,99970.56
2023-05-13T06:33:31.095Z,99981.94
2023-05-13T06:35:58.057Z,99982.19
2023-05-13T06:38:28.940Z,99991.75
2023-05-13T06:40:58.280Z,99984.59
2023-05-13T06:43:30.540Z,99983.56
2023-05-13T06:46:00.107Z,99986.91
2023-05-13T06:48:28.708Z,99982.34
2023-05-13T06:50:58.053Z,99987.59
2023-05-13T06:53:25.192Z,99991.28
2023-05-13T06:55:52.060Z,99994.66
2023-05-13T06:58:19.296Z,99988.53
2023-05-13T07:00:47.038Z,99995.75
2023-05-13T07:03:14.228Z,100002.13
2023-05-13T07:05:41.244Z,99988.50
2023-05-13T07:08:08.778Z,99996.28
2023-05-13T07:10:36.175Z,100000.59
2023-05-13T07:13:03.407Z,99995.16
2023-05-13T07:15:30.286Z,99999.47
2023-05-13T07:17:57.701Z,99991.72
2023-05-13T07:20:26.676Z,99991.34
2023-05-13T07:22:54.058Z,99994.06
2023-05-13T07:25:21.167Z,100006.88
2023-05-13T07:27:51.595Z,100003.44
2023-05-13T07:30:18.540Z,100009.06
2023-05-13T07:32:46.032Z,100009.16
2023-05-13T07:35:12.958Z,100009.44
2023-05-13T07:37:40.215Z,100013.06
2023-05-13T07:40:08.066Z,100018.38
2023-05-13T07:42:37.905Z,100025.88
2023-05-13T07:45:05.517Z,100021.00
2023-05-13T07:47:36.323Z,100024.97
2023-05-13T07:50:03.508Z,100027.03
2023-05-13T07:52:33.843Z,100029.09
2023-05-13T07:55:01.301Z,100028.72
2023-05-13T07:57:28.469Z,100032.59
2023-05-13T07:59:55.388Z,100027.22
2023-05-13T08:02:22.837Z,100035.16
2023-05-13T08:04:51.061Z,100034.06
2023-05-13T08:07:20.840Z,100032.81
2023-05-13T08:09:47.715Z,100027.47
2023-05-13T08:12:14.867Z,100031.63
2023-05-13T08:14:45.167Z,100034.66
2023-05-13T08:17:13.264Z,100040.97
2023-05-13T08:19:40.293Z,100037.16
2023-05-13T08:22:07.594Z,100039.00
2023-05-13T08:24:34.454Z,100038.41
2023-05-13T08:27:01.794Z,100041.25
2023-05-13T08:29:29.858Z,100035.00
2023-05-13T08:31:57.405Z,100041.63
2023-05-13T08:34:24.358Z,100045.97
2023-05-13T08:36:53.875Z,100045.69
2023-05-13T08:39:20.754Z,100050.91
2023-05-13T08:41:49.721Z,100047.94
2023-05-13T08:44:18.960Z,100041.31
2023-05-13T08:46:56.850Z,100048.91
2023-05-13T08:49:23.979Z,100054.53
2023-05-13T08:51:51.670Z,100049.00
2023-05-13T08:54:18.606Z,100050.25
2023-05-13T08:56:45.801Z,100049.03
2023-05-13T08:59:12.632Z,100040.47
2023-05-13T09:01:42.357Z,100051.28
2023-05-13T09:04:10.545Z,100047.66
2023-05-13T09:06:38.061Z,100044.56
2023-05-13T09:09:07.268Z,100042.50
2023-05-13T09:11:34.829Z,100050.03
2023-05-13T09:14:02.803Z,100049.69
2023-05-13T09:16:32.785Z,100048.16
2023-05-13T09:19:00.807Z,100057.41
2023-05-13T09:21:29.587Z,100049.06
2023-05-13T09:24:21.507Z,100051.94
2023-05-13T09:26:49.633Z,100061.97
2023-05-13T09:29:16.685Z,100060.03
2023-05-13T09:31:48.961Z,100070.81
2023-05-13T09:34:24.196Z,100073.59
2023-05-13T09:36:58.724Z,100065.25
2023-05-13T09:39:26.075Z,100070.31
2023-05-13T09:41:53.346Z,100068.19
2023-05-13T09:44:21.473Z,100065.25
2023-05-13T09:46:49.691Z,100064.09
2023-05-13T09:49:16.709Z,100061.94
2023-05-13T09:51:45.503Z,100067.38
2023-05-13T09:54:13.049Z,100063.56
2023-05-13T09:56:40.544Z,100071.38
2023-05-13T09:59:07.453Z,100073.16
2023-05-13T10:01:37.727Z,100067.59
2023-05-13T10:04:06.389Z,100063.09
2023-05-13T10:06:34.383Z,100059.94
2023-05-13T10:09:04.227Z,100062.63
2023-05-13T10:11:36.087Z,100063.69
2023-05-13T10:14:07.057Z,100060.22
2023-05-13T10:16:34.675Z,100065.28
2023-05-13T10:19:03.496Z,100076.44
2023-05-13T10:21:31.337Z,100072.22
2023-05-13T10:23:58.594Z,100070.38
2023-05-13T10:26:26.309Z,100068.44
2023-05-13T10:28:53.860Z,100067.19
2023-05-13T10:31:21.131Z,100068.69
2023-05-13T10:33:48.233Z,100063.78
2023-05-13T10:36:38.921Z,100074.06
2023-05-13T10:39:05.915Z,100072.88
2023-05-13T10:41:51.252Z,100064.94
2023-05-13T10:44:19.558Z,100077.03
2023-05-13T10:46:50.477Z,100062.50
2023-05-13T10:49:22.324Z,100069.88
2023-05-13T10:51:52.554Z,100077.59
2023-05-13T10:54:24.837Z,100065.16
2023-05-13T10:56:59.199Z,100065.59
2023-05-13T10:59:30.428Z,100068.19
2023-05-13T11:02:00.989Z,100068.94
2023-05-13T11:04:27.918Z,100064.75
2023-05-13T11:06:55.171Z,100052.22
2023-05-13T11:09:22.006Z,100065.25
2023-05-13T11:11:52.673Z,100065.25
2023-05-13T11:14:23.820Z,100065.28
2023-05-13T11:17:00.385Z,100067.09
2023-05-13T11:19:31.804Z,100065.25
2023-05-13T11:22:05.616Z,100072.53
2023-05-13T11:24:32.976Z,100081.06
2023-05-13T11:27:12.524Z,100075.91
2023-05-13T11:29:47.679Z,100076.72
2023-05-13T11:32:14.906Z,100074.75
2023-05-13T11:34:50.653Z,100083.41
2023-05-13T11:37:17.949Z,100084.03
2023-05-13T11:39:44.797Z,100074.09
2023-05-13T11:42:12.116Z,100077.13
2023-05-13T11:44:45.564Z,100072.97
2023-05-13T11:47:13.082Z,100078.84
2023-05-13T11:49:43.051Z,100080.63
2023-05-13T11:52:10.406Z,100072.19
2023-05-13T11:54:44.584Z,100077.72
2023-05-13T11:57:33.534Z,100078.31
2023-05-13T12:00:07.116Z,100075.00
2023-05-13T12:02:36.425Z,100084.34
2023-05-13T12:05:05.083Z,100081.78
2023-05-13T12:07:35.124Z,100078.31
2023-05-13T12:10:02.956Z,100074.59
2023-05-13T12:12:31.366Z,100076.16
2023-05-13T12:15:00.254Z,100072.84
2023-05-13T12:17:27.720Z,100070.75
2023-05-13T12:20:11.934Z,100072.13
2023-05-13T12:22:45.361Z,100075.13
2023-05-13T12:25:31.020Z,100071.50
2023-05-13T12:28:18.500Z,100079.03
2023-05-13T12:30:51.215Z,100085.38
2023-05-13T12:33:19.528Z,100084.22
2023-05-13T12:35:50.025Z,100069.13
2023-05-13T12:38:18.600Z,100081.66
2023-05-13T12:40:46.111Z,100086.72
2023-05-13T12:43:16.806Z,100085.44
2023-05-13T12:45:45.241Z,100085.00
2023-05-13T12:48:13.607Z,100085.09
2023-05-13T12:50:43.036Z,100086.16
2023-05-13T12:53:10.199Z,100087.75
2023-05-13T12:55:40.272Z,100095.38
2023-05-13T12:58:08.124Z,100094.63
2023-05-13T13:00:35.366Z,100094.72
2023-05-13T13:03:05.288Z,100084.56
2023-05-13T13:05:32.222Z,100094.06
2023-05-13T13:08:01.151Z,100090.75
2023-05-13T13:10:28.449Z,100088.84
2023-05-13T13:12:55.766Z,100091.19
2023-05-13T13:15:22.837Z,100090.78
2023-05-13T13:17:50.207Z,100088.31
2023-05-13T13:20:17.387Z,100092.06
2023-05-13T13:22:45.620Z,100085.75
2023-05-13T13:25:12.590Z,100080.69
2023-05-13T13:27:42.138Z,100084.25
2023-05-13T13:30:09.245Z,100085.41
2023-05-13T13:32:36.461Z,100080.03
2023-05-13T13:35:05.537Z,100080.88
2023-05-13T13:37:32.784Z,100092.84
2023-05-13T13:39:59.704Z,100084.88
2023-05-13T13:42:40.175Z,100088.91
2023-05-13T13:45:11.111Z,100085.84
2023-05-13T13:47:38.594Z,100072.22
2023-05-13T13:50:06.095Z,100075.13
2023-05-13T13:52:33.387Z,100075.94
2023-05-13T13:55:00.631Z,100071.44
2023-05-13T13:57:28.047Z,100075.44
2023-05-13T13:59:54.966Z,100079.00
2023-05-13T14:02:22.704Z,100073.28
2023-05-13T14:04:49.827Z,100083.94
2023-05-13T14:07:19.328Z,100076.38
2023-05-13T14:09:46.173Z,100084.84
2023-05-13T14:12:13.599Z,100078.81
2023-05-13T14:14:42.650Z,100082.72
2023-05-13T14:17:11.099Z,100082.41
2023-05-13T14:19:39.080Z,100083.53
2023-05-13T14:22:06.566Z,100076.94
2023-05-13T14:24:35.879Z,100079.41
2023-05-13T14:27:03.129Z,100083.47
2023-05-13T14:29:30.492Z,100075.97
2023-05-13T14:31:57.935Z,100084.22
2023-05-13T14:34:25.025Z,100084.88
2023-05-13T14:36:52.463Z,100086.88
2023-05-13T14:39:19.292Z,100080.50
2023-05-13T14:41:46.543Z,100074.50
2023-05-13T14:44:14.120Z,100070.00
2023-05-13T14:46:43.813Z,100073.22
2023-05-13T14:49:10.686Z,100078.03
2023-05-13T14:51:38.095Z,100068.72
2023-05-13T14:54:05.173Z,100070.09
2023-05-13T14:56:32.376Z,100076.31
2023-05-13T14:59:02.404Z,100073.31
2023-05-13T15:01:35.097Z,100070.75
2023-05-13T15:04:02.217Z,100065.69
2023-05-13T15:06:29.472Z,100066.69
2023-05-13T15:08:56.485Z,100068.50
2023-05-13T15:11:24.781Z,100072.16
2023-05-13T15:13:51.608Z,100068.25
2023-05-13T15:16:18.874Z,100058.63
2023-05-13T15:18:45.935Z,100060.34
2023-05-13T15:21:13.342Z,100061.66
2023-05-13T15:23:40.364Z,100061.19
2023-05-13T15:26:12.041Z,100070.31
2023-05-13T15:28:38.967Z,100069.78
2023-05-13T15:31:06.378Z,100068.91
2023-05-13T15:33:33.544Z,100066.34
2023-05-13T15:36:01.355Z,100059.50
2023-05-13T15:38:30.690Z,100060.34
2023-05-13T15:40:57.873Z,100061.53
2023-05-13T15:43:27.050Z,100062.06
2023-05-13T15:45:57.217Z,100054.03
2023-05-13T15:48:24.206Z,100055.19
2023-05-13T15:50:52.207Z,100060.13
2023-05-13T15:53:19.235Z,100054.03
2023-05-13T15:55:48.889Z,100054.56
2023-05-13T15:58:15.736Z,100058.19
2023-05-13T16:00:45.548Z,100052.94
2023-05-13T16:03:12.398Z,100050.81
2023-05-13T16:05:40.032Z,100048.56
2023-05-13T16:08:09.241Z,100055.72
2023-05-13T16:10:36.522Z,100051.66
2023-05-13T16:13:04.420Z,100061.63
2023-05-13T16:15:34.089Z,100059.16
2023-05-13T16:18:03.673Z,100054.09
2023-05-13T16:20:30.985Z,100050.25
2023-05-13T16:22:58.221Z,100055.28
2023-05-13T16:25:25.407Z,100052.28
2023-05-13T16:27:52.345Z,100054.94
2023-05-13T16:30:19.560Z,100051.19
2023-05-13T16:32:49.018Z,100052.69
2023-05-13T16:35:16.416Z,100056.53
2023-05-13T16:37:43.255Z,100059.00
2023-05-13T16:40:11.255Z,100054.22
2023-05-13T16:42:38.159Z,100049.94
2023-05-13T16:45:06.120Z,100047.94
2023-05-13T16:47:33.252Z,100046.41
2023-05-13T16:50:00.537Z,100050.25
2023-05-13T16:52:27.474Z,100048.56
2023-05-13T16:54:56.567Z,100047.78
2023-05-13T16:57:24.948Z,100047.03
2023-05-13T16:59:52.077Z,100043.06
2023-05-13T17:02:18.982Z,100040.22
2023-05-13T17:04:46.242Z,100031.09
2023-05-13T17:07:13.162Z,100039.69
2023-05-13T17:09:40.344Z,100039.97
2023-05-13T17:12:09.640Z,100043.59
2023-05-13T17:14:37.061Z,100034.97
2023-05-13T17:17:04.197Z,100037.19
2023-05-13T17:19:31.494Z,100044.16
2023-05-13T17:21:58.360Z,100040.91
2023-05-13T17:24:29.316Z,100047.53
2023-05-13T17:26:56.595Z,100045.78
2023-05-13T17:29:25.631Z,100042.78
2023-05-13T17:31:52.959Z,100050.72
2023-05-13T17:34:20.439Z,100040.53
2023-05-13T17:36:49.867Z,100046.19
2023-05-13T17:39:17.488Z,100042.38
2023-05-13T17:41:44.331Z,100046.19
2023-05-13T17:44:11.685Z,100047.16
2023-05-13T17:46:38.630Z,100049.50
2023-05-13T17:49:05.926Z,100043.41
2023-05-13T17:51:32.872Z,100044.25
2023-05-13T17:54:00.149Z,100053.34
2023-05-13T17:56:27.236Z,100050.09
2023-05-13T17:58:54.440Z,100054.94
2023-05-13T18:01:21.906Z,100052.00
2023-05-13T18:03:49.226Z,100052.53
2023-05-13T18:06:16.184Z,100047.19
2023-05-13T18:08:43.431Z,100043.75
2023-05-13T18:11:10.440Z,100050.38
2023-05-13T18:13:37.611Z,100053.91
2023-05-13T18:16:06.125Z,100051.63
2023-05-13T18:18:36.022Z,100051.41
2023-05-13T18:21:05.273Z,100062.31
2023-05-13T18:23:32.814Z,100054.50
2023-05-13T18:25:59.771Z,100049.03
2023-05-13T18:28:27.137Z,100050.38
2023-05-13T18:30:54.201Z,100045.31
2023-05-13T18:33:22.098Z,100041.50
2023-05-13T18:35:49.069Z,100048.31
2023-05-13T18:38:16.281Z,100045.63
2023-05-13T18:40:43.172Z,100034.06
2023-05-13T18:43:10.578Z,100033.63
2023-05-13T18:45:37.458Z,100033.38
2023-05-13T18:48:06.984Z,100035.19
2023-05-13T18:50:34.438Z,100041.25
2023-05-13T18:53:01.777Z,100044.13
2023-05-13T18:55:28.700Z,100050.41
2023-05-13T18:57:56.319Z,100058.00
2023-05-13T19:00:23.889Z,100054.25
2023-05-13T19:02:51.593Z,100062.34
2023-05-13T19:05:20.428Z,100061.38
2023-05-13T19:07:47.828Z,100061.09
2023-05-13T19:10:15.749Z,100071.44
2023-05-13T19:12:42.911Z,100068.19
2023-05-13T19:15:10.067Z,100069.47
2023-05-13T19:17:40.335Z,100060.63
2023-05-13T19:20:08.052Z,100067.47
2023-05-13T19:22:35.399Z,100066.16
2023-05-13T19:25:02.404Z,100070.97
2023-05-13T19:27:29.745Z,100068.72
2023-05-13T19:29:56.571Z,100069.78
2023-05-13T19:32:24.258Z,100077.56
2023-05-13T19:34:53.655Z,100076.75
2023-05-13T19:37:20.819Z,100078.63
2023-05-13T19:39:52.561Z,100073.38
2023-05-13T19:42:19.833Z,100073.06
2023-05-13T19:44:46.762Z,100076.88
2023-05-13T19:47:13.940Z,100073.38
2023-05-13T19:49:40.763Z,100076.63
2023-05-13T19:52:08.399Z,100075.13
2023-05-13T19:54:37.670Z,100066.84
2023-05-13T19:57:05.285Z,100075.69
2023-05-13T19:59:32.360Z,100072.41
2023-05-13T20:01:59.564Z,100074.16
2023-05-13T20:04:26.537Z,100065.88
2023-05-13T20:06:53.787Z,100063.09
2023-05-13T20:09:21.636Z,100061.59
2023-05-13T20:11:49.258Z,100056.56
2023-05-13T20:14:31.592Z,100060.63
2023-05-13T20:16:59.562Z,100059.09
2023-05-13T20:19:26.746Z,100060.16
2023-05-13T20:21:54.152Z,100055.34
2023-05-13T20:24:21.274Z,100055.88
2023-05-13T20:26:48.682Z,100058.66
2023-05-13T20:29:16.253Z,100060.69
2023-05-13T20:31:43.781Z,100051.16
2023-05-13T20:34:11.034Z,100050.63
2023-05-13T20:36:38.888Z,100049.56
2023-05-13T20:39:08.251Z,100052.13
2023-05-13T20:41:36.423Z,100049.56
2023-05-13T20:44:03.314Z,100046.03
2023-05-13T20:46:30.620Z,100055.66
2023-05-13T20:49:00.060Z,100043.78
2023-05-13T20:51:27.401Z,100043.25
2023-05-13T20:53:54.653Z,100042.28
2023-05-13T20:56:24.295Z,100045.06
2023-05-13T20:58:52.315Z,100044.31
2023-05-13T21:01:19.484Z,100051.16
2023-05-13T21:03:48.299Z,100041.81
2023-05-13T21:06:17.217Z,100044.59
2023-05-13T21:08:44.368Z,100036.81
2023-05-13T21:11:11.715Z,100038.28
2023-05-13T21:13:38.603Z,100044.31
2023-05-13T21:16:06.263Z,100042.34
2023-05-13T21:18:34.136Z,100041.81
2023-05-13T21:21:08.625Z,100043.84
2023-05-13T21:23:39.803Z,100046.63
2023-05-13T21:26:07.421Z,100042.59
2023-05-13T21:28:34.908Z,100043.84
2023-05-13T21:31:02.264Z,100046.78
2023-05-13T21:33:29.180Z,100048.81
2023-05-13T21:35:56.760Z,100043.72
2023-05-13T21:38:24.114Z,100045.50
2023-05-13T21:40:51.308Z,100048.09
2023-05-13T21:43:20.459Z,100038.00
2023-05-13T21:45:48.375Z,100034.22
2023-05-13T21:48:15.379Z,100031.19
2023-05-13T21:50:42.593Z,100030.66
2023-05-13T21:53:10.269Z,100022.56
2023-05-13T21:55:37.433Z,100019.56
2023-05-13T21:58:04.318Z,100014.78
2023-05-13T22:00:31.834Z,100015.81
2023-05-13T22:03:00.516Z,100000.72
2023-05-13T22:05:28.403Z,100014.06
2023-05-13T22:07:55.341Z,100011.59
2023-05-13T22:10:23.716Z,100007.81
2023-05-13T22:12:50.770Z,100007.09
2023-05-13T22:15:17.957Z,100003.31
2023-05-13T22:17:44.963Z,100008.41
2023-05-13T22:20:12.476Z,99996.88
2023-05-13T22:22:39.366Z,100002.19
2023-05-13T22:25:06.755Z,99997.69
2023-05-13T22:27:36.126Z,100000.22
2023-05-13T22:30:03.484Z,99991.66
2023-05-13T22:32:30.713Z,99992.41
2023-05-13T22:34:57.894Z,99992.66
2023-05-13T22:37:24.744Z,99997.44
2023-05-13T22:39:52.501Z,99994.97
2023-05-13T22:42:19.310Z,99994.97
2023-05-13T22:44:48.982Z,99997.72
2023-05-13T22:47:15.878Z,99998.69
2023-05-13T22:49:43.152Z,100006.28
2023-05-13T22:52:09.974Z,99995.47
2023-05-13T22:54:37.210Z,99994.97
2023-05-13T22:57:06.341Z,100004.31
2023-05-13T22:59:33.559Z,99998.53
2023-05-13T23:02:00.580Z,99995.78
2023-05-13T23:04:30.426Z,99995.81
2023-05-13T23:06:57.380Z,99989.81
2023-05-13T23:09:24.579Z,99986.28
2023-05-13T23:11:51.534Z,99983.56
2023-05-13T23:14:21.103Z,99981.31
2023-05-13T23:16:47.997Z,99982.53
2023-05-13T23:19:15.194Z,99973.97
2023-05-13T23:21:42.253Z,99985.34
2023-05-13T23:24:09.590Z,99970.97
2023-05-13T23:26:36.520Z,99967.75
2023-05-13T23:29:04.231Z,99965.75
2023-05-13T23:31:31.424Z,99957.78
2023-05-13T23:33:58.581Z,99971.00
2023-05-13T23:36:25.437Z,99958.94
2023-05-13T23:38:52.538Z,99959.00
2023-05-13T23:41:19.344Z,99957.81
2023-05-13T23:43:46.496Z,99962.88
2023-05-13T23:46:13.482Z,99949.06
2023-05-13T23:48:40.815Z,99949.81
2023-05-13T23:51:10.192Z,99957.88
2023-05-13T23:53:37.468Z,99957.38
2023-05-13T23:56:04.613Z,99961.41
2023-05-13T23:58:31.896Z,99958.38
